Time;durP1;ratioP1;P1;durP2;ratioP2;P2;SDS_P1;SDS_P2;PMS_P1;PMS_P2;Temp;Humidity;BMP_temperature;BMP_pressure;BME280_temperature;BME280_humidity;BME280_pressure;Samples;Min_cycle;Max_cycle;Signal;HPM_P1;HPM_P2
2023/08/29 00:00:29;;;;;;;85.60;43.10;;;17.30;99.90;;;;;;5020249;28;20604;-85
2023/08/29 00:02:54;;;;;;;85.50;46.20;;;17.30;99.90;;;;;;5038075;28;20200;-85
2023/08/29 00:05:20;;;;;;;82.90;43.83;;;17.30;99.90;;;;;;5037875;28;20161;-85
2023/08/29 00:07:46;;;;;;;88.53;51.13;;;17.30;99.90;;;;;;5037573;28;20246;-85
2023/08/29 00:10:12;;;;;;;86.13;47.40;;;17.20;99.90;;;;;;5037700;28;20181;-85
2023/08/29 00:12:41;;;;;;;85.47;46.33;;;17.20;99.90;;;;;;5020302;28;20228;-85
2023/08/29 00:15:08;;;;;;;89.77;54.60;;;17.20;99.90;;;;;;5037654;28;20181;-85
2023/08/29 00:17:34;;;;;;;88.70;47.20;;;17.10;99.90;;;;;;5037834;28;20852;-85
2023/08/29 00:20:00;;;;;;;85.50;46.87;;;17.10;99.90;;;;;;5037973;28;20420;-85
2023/08/29 00:22:26;;;;;;;86.53;52.07;;;17.10;99.90;;;;;;5019906;28;20203;-85
2023/08/29 00:24:56;;;;;;;87.63;52.40;;;17.00;99.90;;;;;;5019939;28;20779;-86
2023/08/29 00:27:22;;;;;;;87.30;43.40;;;17.00;99.90;;;;;;5041164;28;20153;-85
2023/08/29 00:29:48;;;;;;;84.70;38.17;;;16.90;99.90;;;;;;5041506;28;20422;-85
2023/08/29 00:32:14;;;;;;;90.00;42.10;;;16.90;99.90;;;;;;5023465;28;20465;-85
2023/08/29 00:34:39;;;;;;;87.43;49.13;;;17.00;99.90;;;;;;5041148;28;20172;-85
2023/08/29 00:37:05;;;;;;;86.80;49.73;;;17.00;99.90;;;;;;5023363;28;20445;-85
2023/08/29 00:39:31;;;;;;;87.37;49.57;;;17.00;99.90;;;;;;5041099;28;20303;-85
2023/08/29 00:41:57;;;;;;;85.60;48.37;;;16.90;99.90;;;;;;5041443;28;20189;-85
2023/08/29 00:44:22;;;;;;;83.73;35.63;;;16.90;99.90;;;;;;5041374;28;20232;-85
2023/08/29 00:46:49;;;;;;;81.17;33.10;;;16.80;99.90;;;;;;5023361;28;20403;-85
2023/08/29 00:49:18;;;;;;;81.30;34.90;;;16.80;99.90;;;;;;5040584;28;20169;-85
2023/08/29 00:51:45;;;;;;;81.90;33.47;;;16.80;99.90;;;;;;5040877;28;20426;-85
2023/08/29 00:54:10;;;;;;;82.20;30.30;;;16.80;99.90;;;;;;5040947;28;20532;-85
2023/08/29 00:56:36;;;;;;;81.87;29.70;;;16.80;99.90;;;;;;5022899;28;20816;-85
2023/08/29 00:59:05;;;;;;;80.40;34.20;;;16.80;99.90;;;;;;5040645;28;20414;-85
2023/08/29 01:01:32;;;;;;;83.20;34.53;;;16.80;99.90;;;;;;5040109;28;20448;-85
2023/08/29 01:03:58;;;;;;;83.50;31.60;;;16.80;99.90;;;;;;5040061;28;20403;-85
2023/08/29 01:06:24;;;;;;;81.40;29.83;;;16.80;99.90;;;;;;5039908;28;20403;-84
2023/08/29 01:08:51;;;;;;;85.50;36.83;;;16.80;99.90;;;;;;5040653;28;20171;-85
2023/08/29 01:11:28;;;;;;;81.10;30.80;;;16.80;99.90;;;;;;5040040;28;20433;-85
2023/08/29 01:14:09;;;;;;;81.60;33.00;;;16.80;99.90;;;;;;5022297;28;20783;-85
2023/08/29 01:17:04;;;;;;;85.50;32.40;;;16.80;99.90;;;;;;5023214;28;20757;-85
2023/08/29 01:19:31;;;;;;;81.53;33.80;;;16.90;99.90;;;;;;5033627;28;20432;-85
2023/08/29 01:22:16;;;;;;;83.40;30.30;;;16.90;99.90;;;;;;5039858;28;20808;-85
2023/08/29 01:25:05;;;;;;;85.90;31.50;;;16.90;99.90;;;;;;5040404;28;20379;-85
2023/08/29 01:27:34;;;;;;;83.90;33.40;;;16.90;99.90;;;;;;5039681;28;20413;-85
2023/08/29 01:30:01;;;;;;;84.87;34.97;;;16.90;99.90;;;;;;5039388;28;20424;-85
2023/08/29 01:32:28;;;;;;;88.10;41.83;;;16.90;99.90;;;;;;5039981;28;20402;-85
2023/08/29 01:34:55;;;;;;;82.53;35.43;;;16.80;99.90;;;;;;5039475;28;20407;-85
2023/08/29 01:37:20;;;;;;;84.40;37.00;;;16.80;99.90;;;;;;5038683;28;20416;-85
2023/08/29 01:39:46;;;;;;;84.00;34.90;;;16.80;99.90;;;;;;5021800;28;20473;-85
2023/08/29 01:42:11;;;;;;;85.23;36.80;;;16.90;99.90;;;;;;5021342;28;20190;-85
2023/08/29 01:44:37;;;;;;;83.60;36.70;;;16.80;99.90;;;;;;5021648;28;20168;-85
2023/08/29 01:47:03;;;;;;;86.90;37.40;;;16.80;99.90;;;;;;5039344;28;20260;-85
2023/08/29 01:51:56;;;;;;;84.23;36.60;;;16.80;99.90;;;;;;5038372;28;20208;-85
2023/08/29 01:54:22;;;;;;;85.87;38.03;;;16.80;99.90;;;;;;5039615;28;20400;-85
2023/08/29 01:56:49;;;;;;;84.37;38.73;;;16.80;99.90;;;;;;5039699;28;20200;-85
2023/08/29 01:59:14;;;;;;;83.93;38.73;;;16.80;99.90;;;;;;5041699;28;20164;-85
2023/08/29 02:01:41;;;;;;;86.53;38.00;;;16.80;99.90;;;;;;5058117;28;20450;-85
2023/08/29 02:04:07;;;;;;;84.30;39.77;;;16.80;99.90;;;;;;5059321;28;20207;-85
2023/08/29 02:06:33;;;;;;;93.73;37.23;;;16.80;99.90;;;;;;5059663;28;20399;-85
2023/08/29 02:08:58;;;;;;;84.10;36.97;;;16.80;99.90;;;;;;5041316;28;20926;-85
2023/08/29 02:11:24;;;;;;;83.80;36.50;;;16.80;99.90;;;;;;5059437;28;20164;-85
2023/08/29 02:13:50;;;;;;;87.90;42.30;;;16.80;99.90;;;;;;5058701;28;20176;-85
2023/08/29 02:16:15;;;;;;;87.50;37.73;;;16.80;99.90;;;;;;5041287;28;20181;-85
2023/08/29 02:18:41;;;;;;;93.60;38.63;;;16.80;99.90;;;;;;5059244;28;20184;-85
2023/08/29 02:21:07;;;;;;;86.43;45.50;;;16.80;99.90;;;;;;5058693;28;20194;-85
2023/08/29 02:23:32;;;;;;;86.07;41.63;;;16.80;99.90;;;;;;5059096;28;20157;-85
2023/08/29 02:26:05;;;;;;;86.70;39.10;;;16.80;99.90;;;;;;5059083;28;20658;-85
2023/08/29 02:28:38;;;;;;;87.60;40.67;;;16.80;99.90;;;;;;5040845;28;20200;-85
2023/08/29 02:31:09;;;;;;;88.10;43.97;;;16.80;99.90;;;;;;5058435;28;20438;-85
2023/08/29 02:33:37;;;;;;;86.00;43.33;;;16.70;99.90;;;;;;5040702;28;20494;-85
2023/08/29 02:36:06;;;;;;;86.57;41.10;;;16.70;99.90;;;;;;5040713;28;20417;-85
2023/08/29 02:38:32;;;;;;;87.13;38.47;;;16.70;99.90;;;;;;5058461;28;20770;-85
2023/08/29 02:40:58;;;;;;;85.23;39.13;;;16.70;99.90;;;;;;5058812;28;21040;-85
2023/08/29 02:43:23;;;;;;;83.77;37.73;;;16.70;99.90;;;;;;5058271;28;20412;-85
2023/08/29 02:45:52;;;;;;;86.60;39.47;;;16.80;99.90;;;;;;5058239;28;20162;-85
2023/08/29 02:48:18;;;;;;;88.70;45.90;;;16.80;99.90;;;;;;5058234;28;20169;-85
2023/08/29 02:50:45;;;;;;;86.40;40.73;;;16.70;99.90;;;;;;5057839;28;20442;-85
2023/08/29 02:53:11;;;;;;;88.07;42.20;;;16.70;99.90;;;;;;5058670;28;20263;-85
2023/08/29 02:55:36;;;;;;;90.23;42.10;;;16.70;99.90;;;;;;5058399;28;20391;-85
2023/08/29 02:58:02;;;;;;;89.03;41.47;;;16.70;99.90;;;;;;5058118;28;20156;-85
2023/08/29 03:00:29;;;;;;;88.17;38.90;;;16.70;99.90;;;;;;5058036;28;20257;-85
2023/08/29 03:02:55;;;;;;;90.27;46.10;;;16.70;99.90;;;;;;5058177;28;20435;-85
2023/08/29 03:05:21;;;;;;;86.87;39.73;;;16.70;99.90;;;;;;5057644;28;20465;-85
2023/08/29 03:07:47;;;;;;;92.47;45.93;;;16.60;99.90;;;;;;5057321;28;20411;-85
2023/08/29 03:10:13;;;;;;;87.00;43.93;;;16.60;99.90;;;;;;5057493;28;20504;-85
2023/08/29 03:12:38;;;;;;;87.20;42.43;;;16.60;99.90;;;;;;5057403;28;20634;-85
2023/08/29 03:15:04;;;;;;;85.20;38.87;;;16.60;99.90;;;;;;5056242;28;20540;-85
2023/08/29 03:17:30;;;;;;;93.93;42.07;;;16.60;99.90;;;;;;5058207;28;20259;-85
2023/08/29 03:19:56;;;;;;;86.53;41.60;;;16.60;99.90;;;;;;5057837;28;20420;-85
2023/08/29 03:22:21;;;;;;;88.17;42.63;;;16.60;99.90;;;;;;5057559;28;20182;-85
2023/08/29 03:24:47;;;;;;;89.50;48.13;;;16.50;99.90;;;;;;5057891;28;20166;-85
2023/08/29 03:27:13;;;;;;;89.93;46.40;;;16.50;99.90;;;;;;5056237;28;20283;-85
2023/08/29 03:29:40;;;;;;;87.70;42.07;;;16.60;99.90;;;;;;5057340;28;20183;-85
2023/08/29 03:32:08;;;;;;;90.37;48.20;;;16.50;99.90;;;;;;5039761;28;20411;-85
2023/08/29 03:34:33;;;;;;;87.00;42.00;;;16.50;99.90;;;;;;5058258;28;20405;-85
2023/08/29 03:36:59;;;;;;;87.40;42.40;;;16.50;99.90;;;;;;5058087;28;20441;-85
2023/08/29 03:39:28;;;;;;;88.40;43.70;;;16.40;99.90;;;;;;5059158;28;20234;-85
2023/08/29 03:42:03;;;;;;;87.93;43.80;;;16.40;99.90;;;;;;5041015;28;20452;-85
2023/08/29 03:44:32;;;;;;;92.40;47.60;;;16.50;99.90;;;;;;5059157;28;20821;-85
2023/08/29 03:47:04;;;;;;;86.27;42.13;;;16.50;99.90;;;;;;5057153;28;20411;-85
2023/08/29 03:49:43;;;;;;;87.07;43.17;;;16.50;99.90;;;;;;5040430;28;20431;-85
2023/08/29 03:52:27;;;;;;;89.23;44.50;;;16.40;99.90;;;;;;5039593;28;20431;-85
2023/08/29 03:54:55;;;;;;;87.83;41.03;;;16.40;99.90;;;;;;5055271;28;20928;-85
2023/08/29 03:57:29;;;;;;;92.53;50.43;;;16.40;99.90;;;;;;5058115;28;20421;-85
2023/08/29 03:59:58;;;;;;;87.40;45.47;;;16.40;99.90;;;;;;5059051;28;20413;-85
2023/08/29 04:02:24;;;;;;;90.40;42.50;;;16.40;99.90;;;;;;5061726;28;20437;-85
2023/08/29 04:04:52;;;;;;;87.60;39.70;;;16.40;99.90;;;;;;5061554;28;20409;-85
2023/08/29 04:07:17;;;;;;;89.23;40.50;;;16.30;99.90;;;;;;5043494;28;20418;-85
2023/08/29 04:09:43;;;;;;;86.73;41.80;;;16.30;99.90;;;;;;5061997;28;20425;-85
2023/08/29 04:12:23;;;;;;;92.17;52.47;;;16.30;99.90;;;;;;5043381;28;20277;-85
2023/08/29 04:15:04;;;;;;;86.97;44.90;;;16.40;99.90;;;;;;5060681;28;20165;-85
2023/08/29 04:18:19;;;;;;;89.23;45.23;;;16.30;99.90;;;;;;5044382;28;20404;-84
2023/08/29 04:20:23;;;;;;;90.73;43.83;;;16.30;99.90;;;;;;5043061;28;20449;-84
2023/08/29 04:22:48;;;;;;;89.10;46.70;;;16.30;99.90;;;;;;5060794;28;20438;-85
2023/08/29 04:25:20;;;;;;;89.27;48.47;;;16.30;99.90;;;;;;5042259;28;20981;-85
2023/08/29 04:27:46;;;;;;;88.07;46.77;;;16.30;99.90;;;;;;5060860;28;20262;-85
2023/08/29 04:30:12;;;;;;;88.30;45.70;;;16.30;99.90;;;;;;5060437;28;20446;-85
2023/08/29 04:32:40;;;;;;;89.30;47.97;;;16.20;99.90;;;;;;5060073;28;20396;-84
2023/08/29 04:35:08;;;;;;;93.63;45.63;;;16.20;99.90;;;;;;5060079;28;20166;-85
2023/08/29 04:37:35;;;;;;;89.60;41.80;;;16.20;99.90;;;;;;5060103;28;20910;-85
2023/08/29 04:40:07;;;;;;;93.27;50.17;;;16.20;99.90;;;;;;5060176;28;20422;-85
2023/08/29 04:42:33;;;;;;;86.17;41.47;;;16.20;99.90;;;;;;5060631;28;20466;-85
2023/08/29 04:45:04;;;;;;;89.47;45.47;;;16.20;99.90;;;;;;5060895;28;20496;-84
2023/08/29 04:47:38;;;;;;;89.50;43.97;;;16.20;99.90;;;;;;5060032;28;20415;-85
2023/08/29 04:50:04;;;;;;;91.17;47.23;;;16.20;99.90;;;;;;5059577;28;21013;-85
2023/08/29 04:52:30;;;;;;;88.70;43.63;;;16.20;99.90;;;;;;5059576;28;20394;-85
2023/08/29 04:54:56;;;;;;;92.00;44.83;;;16.20;99.90;;;;;;5059939;28;20781;-85
2023/08/29 04:57:22;;;;;;;90.97;46.43;;;16.20;99.90;;;;;;5059500;28;20426;-85
2023/08/29 04:59:48;;;;;;;90.83;43.70;;;16.20;99.90;;;;;;5058481;28;20238;-85
2023/08/29 05:02:17;;;;;;;89.67;40.43;;;16.20;99.90;;;;;;5041925;28;20448;-85
2023/08/29 05:04:43;;;;;;;90.37;42.40;;;16.20;99.90;;;;;;5041894;28;20402;-85
2023/08/29 05:07:09;;;;;;;87.37;35.30;;;16.20;99.90;;;;;;5059447;28;20398;-85
2023/08/29 05:09:35;;;;;;;92.60;46.53;;;16.20;99.90;;;;;;5041414;28;20911;-85
2023/08/29 05:12:05;;;;;;;89.20;42.20;;;16.20;99.90;;;;;;5058869;28;20441;-85
2023/08/29 05:14:31;;;;;;;91.90;46.00;;;16.30;99.90;;;;;;5040994;28;20410;-84
2023/08/29 05:16:57;;;;;;;97.47;52.87;;;16.30;99.90;;;;;;5059414;28;20935;-84
2023/08/29 05:19:22;;;;;;;91.50;47.70;;;16.30;99.90;;;;;;5058085;28;20430;-85
2023/08/29 05:21:48;;;;;;;90.30;46.90;;;16.20;99.90;;;;;;5057478;28;20662;-84
2023/08/29 05:24:14;;;;;;;92.30;46.37;;;16.30;99.90;;;;;;5059147;28;20247;-84
2023/08/29 05:26:39;;;;;;;94.17;47.13;;;16.30;99.90;;;;;;5058176;28;20649;-85
2023/08/29 05:29:05;;;;;;;87.77;40.20;;;16.30;99.90;;;;;;5040925;28;20196;-84
2023/08/29 05:31:31;;;;;;;92.53;42.80;;;16.30;99.90;;;;;;5057971;28;20254;-84
2023/08/29 05:33:56;;;;;;;92.10;41.60;;;16.30;99.90;;;;;;5057155;28;20192;-84
2023/08/29 05:36:22;;;;;;;89.83;34.93;;;16.30;99.90;;;;;;5057033;28;20214;-84
2023/08/29 05:38:48;;;;;;;88.03;37.70;;;16.30;99.90;;;;;;5039051;28;20206;-84
2023/08/29 05:41:14;;;;;;;90.40;40.83;;;16.30;99.90;;;;;;5056503;28;20195;-84
2023/08/29 05:43:40;;;;;;;90.73;42.13;;;16.30;99.90;;;;;;5056771;28;20701;-84
2023/08/29 05:46:06;;;;;;;92.80;45.27;;;16.30;99.90;;;;;;5056852;28;20918;-84
2023/08/29 05:48:32;;;;;;;91.03;44.87;;;16.30;99.90;;;;;;5056508;28;20396;-84
2023/08/29 05:50:57;;;;;;;92.63;40.40;;;16.40;99.90;;;;;;5055964;28;20717;-83
2023/08/29 05:53:23;;;;;;;90.90;40.03;;;16.40;99.90;;;;;;5037870;28;20175;-84
2023/08/29 05:55:49;;;;;;;91.43;42.33;;;16.40;99.90;;;;;;5056989;28;20157;-84
2023/08/29 05:58:15;;;;;;;93.90;45.80;;;16.40;99.90;;;;;;5039238;28;20168;-84
2023/08/29 06:00:41;;;;;;;97.90;51.43;;;16.50;99.90;;;;;;5057086;28;20259;-84
2023/08/29 06:03:09;;;;;;;91.30;45.37;;;16.50;99.90;;;;;;5056760;28;20474;-85
2023/08/29 06:05:41;;;;;;;91.73;43.90;;;16.50;99.90;;;;;;5057163;28;20195;-85
2023/08/29 06:08:07;;;;;;;92.57;46.33;;;16.50;99.90;;;;;;5056568;28;20935;-84
2023/08/29 06:10:33;;;;;;;95.07;48.40;;;16.60;99.90;;;;;;5057347;28;20468;-84
2023/08/29 06:12:59;;;;;;;93.00;49.57;;;16.60;99.90;;;;;;5056936;28;20405;-84
2023/08/29 06:15:25;;;;;;;90.97;42.13;;;16.60;99.90;;;;;;5058402;28;20417;-84
2023/08/29 06:17:50;;;;;;;96.83;52.00;;;16.60;99.90;;;;;;5058577;28;20198;-84
2023/08/29 06:20:17;;;;;;;99.90;54.10;;;16.70;99.90;;;;;;5040404;28;20194;-84
2023/08/29 06:22:42;;;;;;;100.30;56.17;;;16.80;99.90;;;;;;5057947;28;20187;-84
2023/08/29 06:25:09;;;;;;;96.10;53.53;;;16.80;99.90;;;;;;5058368;28;20958;-85
2023/08/29 06:27:38;;;;;;;95.10;45.53;;;16.70;99.90;;;;;;5058553;28;20168;-85
2023/08/29 06:30:06;;;;;;;95.17;43.90;;;16.80;99.90;;;;;;5058559;28;20422;-85
2023/08/29 06:32:34;;;;;;;89.93;39.87;;;16.80;99.90;;;;;;5058609;28;20405;-85
2023/08/29 06:34:59;;;;;;;94.23;50.40;;;16.80;99.90;;;;;;5058401;28;20409;-84
2023/08/29 06:37:25;;;;;;;97.00;53.70;;;16.90;99.90;;;;;;5040262;28;20496;-84
2023/08/29 06:39:51;;;;;;;98.20;54.30;;;16.90;99.90;;;;;;5058528;28;20195;-84
2023/08/29 06:42:17;;;;;;;99.37;58.63;;;17.00;99.90;;;;;;5040495;28;20815;-85
2023/08/29 06:44:42;;;;;;;102.30;54.93;;;17.10;99.90;;;;;;5058350;28;20167;-84
2023/08/29 06:47:08;;;;;;;100.03;57.33;;;17.10;99.90;;;;;;5058683;28;20326;-85
2023/08/29 06:49:34;;;;;;;99.20;54.93;;;17.10;99.90;;;;;;5058229;28;20188;-84
2023/08/29 06:51:59;;;;;;;98.47;52.70;;;17.10;99.90;;;;;;5058603;28;20296;-85
2023/08/29 06:54:25;;;;;;;99.40;54.37;;;17.20;99.90;;;;;;5058102;28;20283;-84
2023/08/29 06:56:51;;;;;;;95.87;52.33;;;17.20;99.90;;;;;;5058416;28;20233;-85
2023/08/29 06:59:17;;;;;;;102.20;52.10;;;17.30;99.90;;;;;;5040479;28;20410;-85
2023/08/29 07:01:42;;;;;;;104.77;54.07;;;17.40;99.90;;;;;;5057664;28;20684;-85
2023/08/29 07:04:12;;;;;;;105.60;55.10;;;17.40;99.90;;;;;;5058448;28;20164;-85
2023/08/29 07:06:37;;;;;;;102.40;53.40;;;17.40;99.90;;;;;;5057911;28;20258;-84
2023/08/29 07:09:04;;;;;;;102.03;53.50;;;17.50;99.90;;;;;;5058142;28;20494;-85
2023/08/29 07:11:29;;;;;;;102.13;48.67;;;17.50;99.90;;;;;;5057472;28;20157;-85
2023/08/29 07:13:55;;;;;;;102.90;49.20;;;17.50;99.90;;;;;;5057815;28;20424;-85
2023/08/29 07:16:22;;;;;;;100.57;49.83;;;17.60;99.90;;;;;;5058383;28;20257;-85
2023/08/29 07:18:47;;;;;;;103.57;50.10;;;17.60;99.90;;;;;;5058047;28;20226;-85
2023/08/29 07:21:13;;;;;;;103.27;51.90;;;17.60;99.90;;;;;;5057628;28;20458;-85
2023/08/29 07:23:39;;;;;;;102.37;52.63;;;17.60;99.90;;;;;;5057654;28;20176;-85
2023/08/29 07:26:04;;;;;;;101.47;49.80;;;17.60;99.90;;;;;;5057871;28;20168;-85
2023/08/29 07:28:30;;;;;;;99.37;49.37;;;17.50;99.90;;;;;;5057618;28;20168;-85
2023/08/29 07:30:57;;;;;;;105.03;57.60;;;17.40;99.90;;;;;;5058454;28;20191;-85
2023/08/29 07:33:23;;;;;;;104.00;51.17;;;17.40;99.90;;;;;;5057580;28;20251;-85
2023/08/29 07:35:49;;;;;;;110.67;56.37;;;17.50;99.90;;;;;;5057719;28;20407;-85
2023/08/29 07:38:16;;;;;;;112.20;55.87;;;17.50;99.90;;;;;;5058247;28;20787;-85
2023/08/29 07:40:44;;;;;;;111.30;57.57;;;17.60;99.90;;;;;;5040007;28;20188;-85
2023/08/29 07:43:11;;;;;;;109.77;52.50;;;17.60;99.90;;;;;;5057622;28;20969;-85
2023/08/29 07:45:37;;;;;;;118.83;55.93;;;17.70;99.90;;;;;;5057574;28;20751;-86
2023/08/29 07:48:03;;;;;;;114.60;60.00;;;17.80;99.90;;;;;;5058296;28;20438;-86
2023/08/29 07:50:29;;;;;;;114.93;62.30;;;17.90;99.90;;;;;;5057931;28;20533;-85
2023/08/29 07:52:55;;;;;;;117.40;62.93;;;18.00;99.90;;;;;;5039395;28;20446;-84
2023/08/29 07:55:21;;;;;;;111.27;59.00;;;18.00;99.90;;;;;;5057286;28;20407;-85
2023/08/29 07:57:48;;;;;;;116.53;58.33;;;18.10;99.90;;;;;;5057644;28;20183;-85
2023/08/29 08:00:14;;;;;;;108.63;50.87;;;18.20;99.90;;;;;;5039757;28;20188;-85
2023/08/29 08:02:41;;;;;;;111.73;54.93;;;18.20;99.90;;;;;;5057540;28;20439;-85
2023/08/29 08:05:10;;;;;;;115.30;59.23;;;18.20;99.90;;;;;;5039780;28;20461;-85
2023/08/29 08:07:36;;;;;;;115.17;50.47;;;18.20;99.90;;;;;;5057430;28;20407;-85
2023/08/29 08:10:04;;;;;;;109.00;50.67;;;18.30;99.90;;;;;;5057881;28;20427;-85
2023/08/29 08:12:34;;;;;;;108.67;47.80;;;18.30;99.90;;;;;;5040058;28;20414;-84
2023/08/29 08:15:00;;;;;;;109.90;52.03;;;18.40;99.90;;;;;;5057497;28;20407;-86
2023/08/29 08:17:26;;;;;;;118.47;54.33;;;18.50;99.90;;;;;;5057576;28;20429;-85
2023/08/29 08:19:52;;;;;;;113.97;56.10;;;18.40;99.90;;;;;;5057476;28;20427;-85
2023/08/29 08:22:18;;;;;;;109.97;53.70;;;18.50;99.90;;;;;;5058015;28;20435;-85
2023/08/29 08:24:43;;;;;;;113.57;56.63;;;18.50;99.90;;;;;;5057760;28;20165;-85
2023/08/29 08:27:09;;;;;;;111.97;54.60;;;18.50;99.90;;;;;;5058102;28;20252;-85
2023/08/29 08:29:35;;;;;;;111.70;56.77;;;18.60;99.90;;;;;;5039031;28;20682;-85
2023/08/29 08:32:01;;;;;;;115.27;59.93;;;18.70;99.90;;;;;;5057701;28;20177;-85
2023/08/29 08:34:26;;;;;;;117.10;62.73;;;18.80;99.90;;;;;;5057922;28;20469;-85
2023/08/29 08:36:52;;;;;;;108.80;54.73;;;18.80;99.90;;;;;;5039256;28;20222;-85
2023/08/29 08:39:18;;;;;;;112.57;63.13;;;18.80;98.60;;;;;;5057585;28;20312;-85
2023/08/29 08:41:44;;;;;;;113.90;62.00;;;18.60;98.20;;;;;;5057791;28;20184;-85
2023/08/29 08:44:13;;;;;;;110.10;59.67;;;18.70;99.90;;;;;;5039975;28;20169;-85
2023/08/29 08:46:39;;;;;;;104.20;49.43;;;18.60;97.80;;;;;;5060818;28;20399;-85
2023/08/29 08:49:06;;;;;;;97.37;39.57;;;18.70;96.80;;;;;;5064164;28;20453;-85
2023/08/29 08:51:36;;;;;;;96.23;32.83;;;18.80;97.60;;;;;;5046130;28;20509;-85
2023/08/29 08:54:08;;;;;;;102.07;39.77;;;18.80;91.30;;;;;;5045971;28;20419;-85
2023/08/29 08:56:37;;;;;;;102.53;37.37;;;18.90;95.40;;;;;;5063909;28;20891;-85
2023/08/29 08:59:06;;;;;;;100.23;35.00;;;19.00;92.00;;;;;;5065466;28;20494;-83
2023/08/29 09:01:32;;;;;;;100.47;37.77;;;18.90;91.80;;;;;;5061009;28;20438;-85
2023/08/29 09:03:59;;;;;;;101.37;38.63;;;18.90;92.70;;;;;;5043461;28;20412;-85
2023/08/29 09:06:25;;;;;;;104.87;38.57;;;19.00;94.60;;;;;;5061856;28;20414;-85
2023/08/29 09:08:51;;;;;;;98.93;34.27;;;19.00;92.00;;;;;;5060866;28;20403;-85
2023/08/29 09:11:20;;;;;;;99.80;35.20;;;18.90;91.00;;;;;;5060967;28;20192;-85
2023/08/29 09:13:46;;;;;;;100.20;34.40;;;19.00;90.60;;;;;;5061321;28;20195;-86
2023/08/29 09:16:12;;;;;;;99.87;35.37;;;19.00;90.30;;;;;;5061056;28;20910;-85
2023/08/29 09:18:42;;;;;;;105.43;35.40;;;19.10;91.30;;;;;;5043006;28;20407;-85
2023/08/29 09:21:18;;;;;;;96.57;34.90;;;19.20;86.30;;;;;;5043156;28;20474;-85
2023/08/29 09:23:44;;;;;;;96.43;33.70;;;19.10;69.20;;;;;;5042526;28;20497;-85
2023/08/29 09:26:14;;;;;;;91.20;27.90;;;19.10;74.60;;;;;;5043206;28;20445;-85
2023/08/29 09:28:40;;;;;;;97.23;28.40;;;19.10;66.30;;;;;;5061945;28;20437;-85
2023/08/29 09:31:07;;;;;;;92.30;26.37;;;19.10;66.00;;;;;;5061500;28;20419;-85
2023/08/29 09:33:34;;;;;;;94.20;27.67;;;19.10;53.90;;;;;;5061064;28;20767;-85
2023/08/29 09:36:01;;;;;;;92.50;28.57;;;19.10;56.30;;;;;;5061320;28;20417;-85
2023/08/29 09:38:34;;;;;;;91.37;26.23;;;19.30;52.20;;;;;;5059907;28;20496;-85
2023/08/29 09:41:00;;;;;;;92.17;22.80;;;19.40;55.40;;;;;;5060608;28;20458;-85
2023/08/29 09:43:30;;;;;;;84.60;16.63;;;19.60;44.80;;;;;;5060555;28;20404;-85
2023/08/29 09:45:57;;;;;;;90.67;23.67;;;19.60;34.40;;;;;;5042276;28;20778;-85
2023/08/29 09:48:23;;;;;;;92.70;25.20;;;19.60;36.20;;;;;;5061003;28;20406;-85
2023/08/29 09:50:50;;;;;;;93.27;28.10;;;19.70;25.50;;;;;;5060210;28;20435;-85
2023/08/29 09:53:18;;;;;;;99.83;33.00;;;19.80;33.70;;;;;;5060612;28;20442;-85
2023/08/29 09:55:46;;;;;;;100.00;32.63;;;19.80;19.30;;;;;;5042252;28;20403;-85
2023/08/29 09:58:14;;;;;;;103.07;37.87;;;19.90;23.30;;;;;;5041435;28;20415;-85
2023/08/29 10:00:41;;;;;;;96.33;30.73;;;19.90;20.10;;;;;;5060056;28;20837;-85
2023/08/29 10:03:08;;;;;;;103.47;39.50;;;20.00;22.00;;;;;;5060168;28;20506;-85
2023/08/29 10:05:36;;;;;;;108.50;33.93;;;20.10;11.90;;;;;;5059923;28;20907;-85
2023/08/29 10:08:16;;;;;;;99.27;36.67;;;20.10;18.20;;;;;;5059995;28;20429;-85
2023/08/29 10:10:43;;;;;;;98.00;34.77;;;20.20;21.40;;;;;;5060109;28;20422;-85
2023/08/29 10:13:10;;;;;;;99.77;36.00;;;20.20;18.10;;;;;;5060108;28;20427;-85
2023/08/29 10:15:37;;;;;;;95.37;30.27;;;20.40;16.60;;;;;;5059704;28;20399;-85
2023/08/29 10:18:04;;;;;;;93.13;25.50;;;20.50;16.50;;;;;;5059575;28;20403;-85
2023/08/29 10:20:32;;;;;;;90.37;22.57;;;20.50;7.10;;;;;;5041998;28;20769;-85
2023/08/29 10:23:00;;;;;;;94.70;23.10;;;20.50;1.00;;;;;;5059445;28;20435;-85
2023/08/29 10:25:28;;;;;;;92.50;21.70;;;20.70;2.50;;;;;;5041276;28;20459;-85
2023/08/29 10:27:54;;;;;;;87.13;18.87;;;20.80;4.50;;;;;;5041779;28;20411;-85
2023/08/29 10:30:23;;;;;;;88.87;18.70;;;20.90;1.00;;;;;;5041910;28;20522;-85
2023/08/29 10:32:49;;;;;;;91.90;22.40;;;20.90;1.00;;;;;;5059473;28;20406;-85
2023/08/29 10:35:20;;;;;;;92.57;21.47;;;20.90;1.00;;;;;;5058979;28;20835;-85
2023/08/29 10:37:50;;;;;;;90.63;21.10;;;21.00;1.00;;;;;;5059131;28;20402;-85
2023/08/29 10:40:17;;;;;;;90.30;21.40;;;20.90;1.00;;;;;;5041877;28;20445;-85
2023/08/29 10:43:00;;;;;;;87.70;19.97;;;20.80;1.00;;;;;;5058753;28;20529;-85
2023/08/29 10:45:42;;;;;;;90.90;21.73;;;20.80;1.00;;;;;;5041192;28;20435;-84
2023/08/29 10:48:08;;;;;;;92.23;21.20;;;20.90;1.00;;;;;;5040674;28;20399;-85
2023/08/29 10:50:39;;;;;;;86.60;19.23;;;20.90;1.00;;;;;;5040942;28;20514;-85
2023/08/29 10:53:18;;;;;;;86.50;19.70;;;20.80;1.00;;;;;;5041616;28;20626;-85
2023/08/29 10:56:02;;;;;;;87.20;18.27;;;20.80;1.00;;;;;;5041540;28;20448;-85
2023/08/29 10:58:42;;;;;;;88.37;20.27;;;21.00;1.00;;;;;;5059187;28;20385;-85
2023/08/29 11:01:27;;;;;;;94.83;21.47;;;21.20;1.00;;;;;;5040245;28;20488;-85
2023/08/29 11:03:53;;;;;;;92.87;21.03;;;21.20;1.00;;;;;;5040759;28;20433;-85
2023/08/29 11:06:26;;;;;;;90.10;20.83;;;21.30;1.00;;;;;;5040691;28;20752;-85
2023/08/29 11:09:24;;;;;;;89.13;19.90;;;21.40;1.00;;;;;;5058434;28;20381;-86
2023/08/29 11:12:16;;;;;;;94.90;25.50;;;21.50;1.00;;;;;;5058396;28;20407;-85
2023/08/29 11:14:53;;;;;;;94.00;26.20;;;21.50;1.00;;;;;;5058763;28;20392;-85
2023/08/29 11:17:25;;;;;;;97.73;27.07;;;21.40;1.00;;;;;;5058330;28;20458;-84
2023/08/29 11:19:54;;;;;;;96.00;25.80;;;21.40;1.00;;;;;;5217782;22;20492;-85
2023/08/29 11:22:40;;;;;;;97.00;28.73;;;21.50;1.00;;;;;;5078483;28;20442;-85
2023/08/29 11:25:16;;;;;;;103.23;27.90;;;21.60;1.00;;;;;;5060121;28;20420;-85
2023/08/29 11:27:44;;;;;;;100.80;28.87;;;21.60;1.00;;;;;;5078705;28;20466;-84
2023/08/29 11:30:24;;;;;;;104.73;32.67;;;21.70;1.00;;;;;;5073599;23;20494;-85
2023/08/29 11:33:11;;;;;;;103.47;31.40;;;21.70;1.00;;;;;;5059019;28;20889;-84
2023/08/29 11:35:37;;;;;;;99.17;28.13;;;21.70;1.00;;;;;;5041336;28;20455;-85
2023/08/29 11:38:35;;;;;;;;;;;;;;;;;;;;;
2023/08/29 11:41:32;;;;;;;102.53;31.87;;;21.40;1.00;;;;;;5057992;22;20259;-84
2023/08/29 11:44:44;;;;;;;101.47;32.93;;;21.40;1.00;;;;;;4959081;28;20438;-84
2023/08/29 11:48:23;;;;;;;102.20;32.17;;;21.50;1.00;;;;;;5038078;28;20403;-84
2023/08/29 11:50:47;;;;;;;98.87;28.40;;;21.70;1.00;;;;;;5028974;28;20424;-84
2023/08/29 11:53:34;;;;;;;93.80;26.37;;;21.90;1.00;;;;;;5019697;28;20949;-84
2023/08/29 11:56:31;;;;;;;;;;;;;;;;;;;;;
2023/08/29 11:59:21;;;;;;;;;;;;;;;;;;;;;
2023/08/29 12:05:41;;;;;;;84.63;17.07;;;22.40;1.00;;;;;;5038864;28;20391;-85
2023/08/29 12:12:57;;;;;;;;;;;;;;;;;;;;;
2023/08/29 12:15:53;;;;;;;81.97;15.73;;;22.30;1.00;;;;;;4861635;29;20506;-85
2023/08/29 12:18:48;;;;;;;79.97;14.80;;;22.10;1.00;;;;;;4863386;29;20424;-85
2023/08/29 12:22:21;;;;;;;79.50;14.80;;;22.00;1.00;;;;;;4885291;29;20446;-84
2023/08/29 12:28:14;;;;;;;79.50;14.83;;;21.90;1.00;;;;;;4913508;28;20425;-85
2023/08/29 12:31:01;;;;;;;85.17;16.07;;;21.80;1.00;;;;;;5041786;28;20427;-84
2023/08/29 12:37:27;;;;;;;77.77;13.00;;;21.80;1.00;;;;;;4979384;28;20884;-84
2023/08/29 12:41:22;;;;;;;75.77;12.70;;;21.90;1.00;;;;;;4990444;23;20479;-84
2023/08/29 12:43:23;;;;;;;82.13;14.40;;;21.80;1.00;;;;;;5029579;28;20411;-85
2023/08/29 12:46:05;;;;;;;77.67;13.40;;;21.60;1.00;;;;;;5023286;28;20467;-84
2023/08/29 12:48:33;;;;;;;77.27;12.50;;;21.70;1.00;;;;;;5040827;28;20807;-84
2023/08/29 12:51:07;;;;;;;82.43;16.33;;;21.70;1.00;;;;;;5040451;28;20412;-84
2023/08/29 12:53:44;;;;;;;84.77;17.23;;;21.50;1.00;;;;;;5022965;28;20447;-84
2023/08/29 12:56:34;;;;;;;90.97;17.90;;;21.70;1.00;;;;;;5040716;28;20407;-84
2023/08/29 12:59:57;;;;;;;;;;;;;;;;;;;;;
2023/08/29 13:02:26;;;;;;;82.63;14.93;;;21.70;1.00;;;;;;5039892;28;20503;-84
2023/08/29 13:05:00;;;;;;;80.80;13.37;;;21.70;1.00;;;;;;5039962;28;20487;-84